createdAt,value
2023-02-14T00:01:12.730Z,101726.47
2023-02-14T00:03:39.995Z,101726.16
2023-02-14T00:06:14.720Z,101719.34
2023-02-14T00:08:45.178Z,101728.72
2023-02-14T00:11:13.203Z,101727.22
2023-02-14T00:13:40.216Z,101729.59
2023-02-14T00:16:09.899Z,101718.22
2023-02-14T00:18:55.161Z,101721.09
2023-02-14T00:21:21.873Z,101716.91
2023-02-14T00:26:22.832Z,101712.63
2023-02-14T00:28:49.494Z,101713.75
2023-02-14T00:31:16.661Z,101714.44
2023-02-14T00:33:43.595Z,101719.16
2023-02-14T00:36:11.295Z,101715.75
2023-02-14T00:38:38.193Z,101720.19
2023-02-14T00:41:05.455Z,101724.56
2023-02-14T00:43:32.214Z,101723.63
2023-02-14T00:45:58.995Z,101729.09
2023-02-14T00:48:26.456Z,101720.78
2023-02-14T00:50:53.249Z,101726.88
2023-02-14T00:53:20.091Z,101714.53
2023-02-14T00:55:47.429Z,101725.50
2023-02-14T00:58:14.519Z,101721.25
2023-02-14T01:00:41.313Z,101716.91
2023-02-14T01:03:08.196Z,101717.56
2023-02-14T01:05:34.981Z,101723.63
2023-02-14T01:08:08.187Z,101723.34
2023-02-14T01:10:37.794Z,101725.88
2023-02-14T01:13:05.038Z,101720.03
2023-02-14T01:15:33.262Z,101725.31
2023-02-14T01:18:00.546Z,101721.44
2023-02-14T01:20:27.734Z,101726.94
2023-02-14T01:23:00.516Z,101727.13
2023-02-14T01:25:27.286Z,101728.91
2023-02-14T01:27:54.050Z,101732.72
2023-02-14T01:30:21.060Z,101723.91
2023-02-14T01:32:54.193Z,101728.25
2023-02-14T01:35:21.386Z,101735.28
2023-02-14T01:37:48.108Z,101727.41
2023-02-14T01:40:15.387Z,101727.41
2023-02-14T01:42:42.274Z,101728.34
2023-02-14T01:45:19.315Z,101719.66
2023-02-14T01:47:50.514Z,101721.34
2023-02-14T01:50:23.956Z,101720.41
2023-02-14T01:52:58.608Z,101716.22
2023-02-14T01:55:32.451Z,101727.78
2023-02-14T01:58:07.063Z,101715.56
2023-02-14T02:03:32.432Z,101720.41
2023-02-14T02:06:15.389Z,101713.00
2023-02-14T02:08:58.550Z,101720.97
2023-02-14T02:11:26.817Z,101722.69
2023-02-14T02:13:53.592Z,101717.94
2023-02-14T02:16:34.210Z,101706.78
2023-02-14T02:19:03.979Z,101705.06
2023-02-14T02:21:33.412Z,101705.22
2023-02-14T02:24:02.902Z,101704.28
2023-02-14T02:26:29.602Z,101705.53
2023-02-14T02:31:58.659Z,101692.88
2023-02-14T02:35:02.328Z,101693.03
2023-02-14T02:37:49.047Z,101692.44
2023-02-14T02:40:23.761Z,101689.88
2023-02-14T02:42:58.581Z,101678.09
2023-02-14T02:45:58.565Z,101677.38
2023-02-14T02:48:32.257Z,101675.56
2023-02-14T02:51:19.793Z,101675.97
2023-02-14T02:53:58.560Z,101677.56
2023-02-14T02:56:48.477Z,101677.16
2023-02-14T02:59:27.432Z,101684.16
2023-02-14T03:02:01.531Z,101689.22
2023-02-14T03:04:47.643Z,101690.31
2023-02-14T03:07:33.214Z,101700.50
2023-02-14T03:10:01.804Z,101697.97
2023-02-14T03:12:34.249Z,101693.47
2023-02-14T03:15:28.925Z,101692.66
2023-02-14T03:17:58.606Z,101696.88
2023-02-14T03:20:55.842Z,101695.69
2023-02-14T03:23:39.402Z,101689.44
2023-02-14T03:26:22.644Z,101697.03
2023-02-14T03:28:58.589Z,101697.09
2023-02-14T03:31:41.950Z,101691.22
2023-02-14T03:34:16.967Z,101693.53
2023-02-14T03:36:58.540Z,101688.78
2023-02-14T03:39:32.859Z,101695.88
2023-02-14T03:42:07.605Z,101691.69
2023-02-14T03:44:36.884Z,101695.94
2023-02-14T03:47:13.033Z,101693.78
2023-02-14T03:49:44.622Z,101692.28
2023-02-14T03:52:13.074Z,101698.78
2023-02-14T03:54:40.340Z,101701.25
2023-02-14T03:57:24.980Z,101701.28
2023-02-14T03:59:52.741Z,101701.84
2023-02-14T04:02:28.601Z,101694.34
2023-02-14T04:05:01.914Z,101698.06
2023-02-14T04:07:28.689Z,101696.16
2023-02-14T04:09:55.438Z,101694.00
2023-02-14T04:12:36.884Z,101694.88
2023-02-14T04:15:05.624Z,101695.31
2023-02-14T04:17:51.002Z,101699.13
2023-02-14T04:20:17.849Z,101694.34
2023-02-14T04:22:46.914Z,101703.16
2023-02-14T04:25:14.264Z,101692.38
2023-02-14T04:27:41.372Z,101686.22
2023-02-14T04:30:12.680Z,101688.34
2023-02-14T04:32:40.228Z,101690.25
2023-02-14T04:35:07.083Z,101683.44
2023-02-14T04:37:34.113Z,101680.19
2023-02-14T04:40:01.054Z,101679.75
2023-02-14T04:42:27.877Z,101676.63
2023-02-14T04:44:54.926Z,101684.53
2023-02-14T04:47:21.747Z,101674.25
2023-02-14T04:49:48.500Z,101677.09
2023-02-14T04:52:15.567Z,101666.81
2023-02-14T04:54:42.297Z,101663.50
2023-02-14T04:57:09.333Z,101671.13
2023-02-14T04:59:38.946Z,101670.19
2023-02-14T05:02:05.877Z,101674.53
2023-02-14T05:04:32.641Z,101673.72
2023-02-14T05:07:12.682Z,101668.63
2023-02-14T05:09:39.457Z,101669.22
2023-02-14T05:12:08.352Z,101666.91
2023-02-14T05:14:35.138Z,101667.31
2023-02-14T05:17:04.742Z,101662.56
2023-02-14T05:19:31.441Z,101656.09
2023-02-14T05:21:58.140Z,101654.16
2023-02-14T05:24:25.024Z,101657.03
2023-02-14T05:26:51.723Z,101657.56
2023-02-14T05:29:18.402Z,101661.47
2023-02-14T05:31:46.176Z,101658.41
2023-02-14T05:34:13.017Z,101659.91
2023-02-14T05:36:39.773Z,101654.91
2023-02-14T05:39:06.861Z,101660.72
2023-02-14T05:41:33.615Z,101657.50
2023-02-14T05:44:00.464Z,101656.66
2023-02-14T05:46:27.502Z,101657.50
2023-02-14T05:48:54.171Z,101659.41
2023-02-14T05:51:21.213Z,101658.59
2023-02-14T05:53:48.017Z,101656.84
2023-02-14T05:56:15.007Z,101658.34
2023-02-14T05:58:41.691Z,101658.47
2023-02-14T06:01:08.464Z,101660.03
2023-02-14T06:03:35.115Z,101658.19
2023-02-14T06:06:02.205Z,101664.22
2023-02-14T06:08:29.654Z,101665.53
2023-02-14T06:13:25.001Z,101664.59
2023-02-14T06:15:51.702Z,101663.75
2023-02-14T06:18:18.380Z,101665.38
2023-02-14T06:20:45.025Z,101660.63
2023-02-14T06:23:11.886Z,101665.19
2023-02-14T06:25:38.619Z,101662.13
2023-02-14T06:28:05.700Z,101664.09
2023-02-14T06:30:32.893Z,101666.28
2023-02-14T06:32:59.880Z,101666.41
2023-02-14T06:35:26.739Z,101671.44
2023-02-14T06:37:53.520Z,101668.75
2023-02-14T06:40:20.534Z,101668.00
2023-02-14T06:42:47.846Z,101670.44
2023-02-14T06:45:17.850Z,101676.09
2023-02-14T06:47:45.484Z,101668.66
2023-02-14T06:50:12.373Z,101670.34
2023-02-14T06:52:40.409Z,101673.97
2023-02-14T06:55:08.575Z,101678.44
2023-02-14T06:57:35.344Z,101679.84
2023-02-14T07:00:02.337Z,101681.75
2023-02-14T07:02:29.072Z,101680.63
2023-02-14T07:04:55.742Z,101677.84
2023-02-14T07:07:22.536Z,101686.97
2023-02-14T07:09:49.265Z,101684.47
2023-02-14T07:12:16.024Z,101683.41
2023-02-14T07:14:43.230Z,101678.25
2023-02-14T07:17:09.935Z,101674.56
2023-02-14T07:19:36.624Z,101676.91
2023-02-14T07:22:03.408Z,101675.84
2023-02-14T07:24:30.926Z,101676.94
2023-02-14T07:26:57.645Z,101677.56
2023-02-14T07:29:24.480Z,101670.88
2023-02-14T07:31:51.358Z,101677.03
2023-02-14T07:34:18.306Z,101672.78
2023-02-14T07:36:45.015Z,101671.69
2023-02-14T07:39:11.790Z,101673.31
2023-02-14T07:41:38.675Z,101666.41
2023-02-14T07:44:05.612Z,101661.94
2023-02-14T07:46:35.557Z,101664.59
2023-02-14T07:49:02.313Z,101667.28
2023-02-14T07:51:29.128Z,101669.34
2023-02-14T07:53:55.963Z,101668.94
2023-02-14T07:56:23.072Z,101672.19
2023-02-14T07:58:50.067Z,101669.00
2023-02-14T08:01:17.546Z,101664.22
2023-02-14T08:03:46.320Z,101675.69
2023-02-14T08:06:16.396Z,101666.63
2023-02-14T08:08:43.127Z,101672.94
2023-02-14T08:11:09.923Z,101675.13
2023-02-14T08:13:37.413Z,101670.84
2023-02-14T08:16:11.933Z,101662.81
2023-02-14T08:18:40.865Z,101661.97
2023-02-14T08:21:10.404Z,101670.53
2023-02-14T08:23:38.052Z,101672.72
2023-02-14T08:26:04.974Z,101671.69
2023-02-14T08:28:33.433Z,101667.63
2023-02-14T08:31:01.002Z,101664.94
2023-02-14T08:33:28.623Z,101672.38
2023-02-14T08:35:55.749Z,101669.06
2023-02-14T08:38:22.995Z,101673.22
2023-02-14T08:40:49.740Z,101671.59
2023-02-14T08:43:16.819Z,101669.47
2023-02-14T08:45:43.697Z,101674.97
2023-02-14T08:48:12.333Z,101675.47
2023-02-14T08:50:40.180Z,101667.28
2023-02-14T08:53:12.701Z,101668.63
2023-02-14T08:55:40.643Z,101665.25
2023-02-14T08:58:08.057Z,101661.63
2023-02-14T09:00:35.707Z,101657.94
2023-02-14T09:03:02.521Z,101662.41
2023-02-14T09:05:29.479Z,101662.84
2023-02-14T09:10:24.149Z,101654.16
2023-02-14T09:12:51.132Z,101665.41
2023-02-14T09:15:18.441Z,101663.72
2023-02-14T09:17:45.234Z,101660.66
2023-02-14T09:20:14.127Z,101656.09
2023-02-14T09:22:40.957Z,101662.56
2023-02-14T09:25:07.957Z,101663.97
2023-02-14T09:27:35.058Z,101661.47
2023-02-14T09:30:02.097Z,101656.91
2023-02-14T09:32:29.508Z,101656.53
2023-02-14T09:34:56.270Z,101667.03
2023-02-14T09:37:23.111Z,101661.41
2023-02-14T09:39:49.844Z,101663.91
2023-02-14T09:42:19.602Z,101661.41
2023-02-14T09:44:57.791Z,101656.59
2023-02-14T09:47:40.383Z,101660.75
2023-02-14T09:50:18.342Z,101661.31
2023-02-14T09:52:48.802Z,101651.47
2023-02-14T09:55:17.420Z,101653.97
2023-02-14T09:57:58.859Z,101650.88
2023-02-14T10:00:36.146Z,101645.47
2023-02-14T10:03:21.520Z,101642.50
2023-02-14T10:05:58.798Z,101643.69
2023-02-14T10:08:58.874Z,101644.63
2023-02-14T10:11:25.757Z,101642.50
2023-02-14T10:13:59.038Z,101645.03
2023-02-14T10:16:37.793Z,101639.53
2023-02-14T10:19:15.504Z,101640.06
2023-02-14T10:21:47.112Z,101657.84
2023-02-14T10:24:21.158Z,101656.75
2023-02-14T10:26:50.192Z,101658.56
2023-02-14T10:29:18.807Z,101660.28
2023-02-14T10:31:58.776Z,101638.25
2023-02-14T10:34:30.904Z,101635.94
2023-02-14T10:36:58.705Z,101636.53
2023-02-14T10:39:50.432Z,101632.50
2023-02-14T10:42:23.204Z,101634.19
2023-02-14T10:44:58.975Z,101631.25
2023-02-14T10:47:56.162Z,101627.19
2023-02-14T10:50:46.684Z,101627.81
2023-02-14T10:53:25.986Z,101623.88
2023-02-14T10:55:58.903Z,101621.03
2023-02-14T10:58:29.758Z,101625.69
2023-02-14T11:00:58.097Z,101624.84
2023-02-14T11:03:26.137Z,101624.00
2023-02-14T11:05:52.922Z,101623.25
2023-02-14T11:08:27.134Z,101623.09
2023-02-14T11:10:57.790Z,101618.41
2023-02-14T11:13:28.752Z,101608.63
2023-02-14T11:15:58.224Z,101608.91
2023-02-14T11:18:32.883Z,101609.97
2023-02-14T11:21:01.257Z,101603.84
2023-02-14T11:23:33.385Z,101596.91
2023-02-14T11:26:00.961Z,101594.69
2023-02-14T11:28:31.681Z,101591.19
2023-02-14T11:30:59.630Z,101582.25
2023-02-14T11:33:41.238Z,101577.00
2023-02-14T11:36:17.666Z,101573.59
2023-02-14T11:38:45.945Z,101569.81
2023-02-14T11:41:15.169Z,101572.66
2023-02-14T11:43:44.013Z,101562.16
2023-02-14T11:46:20.994Z,101561.31
2023-02-14T11:48:57.822Z,101564.56
2023-02-14T11:51:42.063Z,101556.28
2023-02-14T11:54:30.554Z,101558.47
2023-02-14T11:56:57.817Z,101551.94
2023-02-14T11:59:31.795Z,101546.22
2023-02-14T12:02:03.743Z,101547.34
2023-02-14T12:04:46.153Z,101543.81
2023-02-14T12:07:36.670Z,101546.25
2023-02-14T12:10:19.290Z,101544.13
2023-02-14T12:12:49.440Z,101532.66
2023-02-14T12:15:42.340Z,101532.56
2023-02-14T12:18:37.579Z,101528.34
2023-02-14T12:21:13.009Z,101530.50
2023-02-14T12:23:45.504Z,101528.41
2023-02-14T12:26:49.510Z,101525.56
2023-02-14T12:29:28.075Z,101520.81
2023-02-14T12:31:58.916Z,101515.50
2023-02-14T12:34:25.808Z,101527.34
2023-02-14T12:36:57.892Z,101517.72
2023-02-14T12:39:36.990Z,101517.63
2023-02-14T12:42:11.387Z,101519.91
2023-02-14T12:44:40.992Z,101508.91
2023-02-14T12:47:26.174Z,101510.22
2023-02-14T12:49:58.906Z,101507.44
2023-02-14T12:52:37.512Z,101509.81
2023-02-14T12:55:31.948Z,101500.94
2023-02-14T12:58:13.565Z,101498.84
2023-02-14T13:00:59.088Z,101492.72
2023-02-14T13:03:46.310Z,101497.75
2023-02-14T13:06:22.611Z,101489.66
2023-02-14T13:08:58.774Z,101483.38
2023-02-14T13:11:44.078Z,101489.00
2023-02-14T13:14:32.214Z,101490.69
2023-02-14T13:17:07.996Z,101487.00
2023-02-14T13:19:53.664Z,101486.34
2023-02-14T13:22:24.161Z,101482.75
2023-02-14T13:24:58.042Z,101476.06
2023-02-14T13:27:29.233Z,101480.09
2023-02-14T13:29:57.920Z,101476.53
2023-02-14T13:32:31.606Z,101478.97
2023-02-14T13:34:59.114Z,101468.03
2023-02-14T13:37:28.322Z,101475.28
2023-02-14T13:42:45.254Z,101482.31
2023-02-14T13:45:31.534Z,101481.13
2023-02-14T13:48:25.493Z,101475.28
2023-02-14T13:50:59.251Z,101476.91
2023-02-14T13:53:41.271Z,101472.97
2023-02-14T13:56:16.980Z,101474.50
2023-02-14T13:58:55.967Z,101475.66
2023-02-14T14:01:34.177Z,101468.63
2023-02-14T14:04:25.991Z,101465.66
2023-02-14T14:06:58.876Z,101473.16
2023-02-14T14:09:43.916Z,101468.34
2023-02-14T14:12:28.746Z,101464.28
2023-02-14T14:14:57.896Z,101458.56
2023-02-14T14:17:26.306Z,101448.84
2023-02-14T14:19:54.012Z,101456.75
2023-02-14T14:22:22.494Z,101452.50
2023-02-14T14:27:27.628Z,101455.00
2023-02-14T14:29:58.907Z,101447.88
2023-02-14T14:32:38.295Z,101439.97
2023-02-14T14:35:25.501Z,101439.06
2023-02-14T14:37:59.907Z,101440.25
2023-02-14T14:40:36.220Z,101439.78
2023-02-14T14:43:12.612Z,101438.81
2023-02-14T14:45:41.928Z,101429.13
2023-02-14T14:48:15.125Z,101432.00
2023-02-14T14:50:45.978Z,101426.72
2023-02-14T14:53:29.457Z,101429.06
2023-02-14T14:58:29.531Z,101427.50
2023-02-14T15:00:56.262Z,101428.38
2023-02-14T15:03:25.726Z,101429.63
2023-02-14T15:05:59.167Z,101423.09
2023-02-14T15:08:30.994Z,101418.00
2023-02-14T15:13:49.888Z,101411.78
2023-02-14T15:16:23.141Z,101417.44
2023-02-14T15:18:51.703Z,101411.91
2023-02-14T15:21:18.745Z,101414.38
2023-02-14T15:23:46.158Z,101405.13
2023-02-14T15:26:25.766Z,101403.91
2023-02-14T15:28:57.838Z,101402.09
2023-02-14T15:31:29.687Z,101394.97
2023-02-14T15:34:00.281Z,101412.34
2023-02-14T15:36:31.491Z,101400.06
2023-02-14T15:38:59.519Z,101405.56
2023-02-14T15:41:27.529Z,101408.00
2023-02-14T15:43:56.779Z,101402.94
2023-02-14T15:46:39.407Z,101405.59
2023-02-14T15:49:10.731Z,101402.66
2023-02-14T15:51:39.299Z,101397.41
2023-02-14T15:54:07.703Z,101403.75
2023-02-14T15:56:44.895Z,101397.81
2023-02-14T15:59:21.602Z,101405.84
2023-02-14T16:01:57.702Z,101405.91
2023-02-14T16:04:30.591Z,101407.81
2023-02-14T16:07:05.885Z,101404.47
2023-02-14T16:09:36.218Z,101397.56
2023-02-14T16:12:06.810Z,101398.31
2023-02-14T16:14:36.540Z,101402.91
2023-02-14T16:17:06.893Z,101403.16
2023-02-14T16:19:45.060Z,101393.28
2023-02-14T16:22:34.689Z,101402.50
2023-02-14T16:25:01.767Z,101397.28
2023-02-14T16:27:28.608Z,101393.22
2023-02-14T16:29:58.354Z,101390.69
2023-02-14T16:32:25.948Z,101392.59
2023-02-14T16:34:52.839Z,101396.50
2023-02-14T16:37:30.303Z,101393.22
2023-02-14T16:39:57.906Z,101395.59
2023-02-14T16:42:25.055Z,101400.06
2023-02-14T16:44:52.372Z,101406.59
2023-02-14T16:47:20.929Z,101398.75
2023-02-14T16:49:50.826Z,101401.28
2023-02-14T16:52:23.448Z,101400.47
2023-02-14T16:54:50.507Z,101403.91
2023-02-14T16:57:23.091Z,101410.88
2023-02-14T16:59:51.053Z,101412.34
2023-02-14T17:02:20.003Z,101415.91
2023-02-14T17:04:46.738Z,101413.75
2023-02-14T17:07:16.089Z,101416.41
2023-02-14T17:09:48.619Z,101413.97
2023-02-14T17:12:24.144Z,101415.69
2023-02-14T17:14:58.856Z,101414.44
2023-02-14T17:17:28.529Z,101426.28
2023-02-14T17:19:55.602Z,101415.16
2023-02-14T17:22:22.449Z,101416.09
2023-02-14T17:24:49.208Z,101412.28
2023-02-14T17:27:16.012Z,101414.59
2023-02-14T17:29:42.865Z,101418.09
2023-02-14T17:32:14.113Z,101417.34
2023-02-14T17:34:43.528Z,101415.69
2023-02-14T17:37:10.556Z,101420.00
2023-02-14T17:39:37.266Z,101418.63
2023-02-14T17:42:04.175Z,101413.75
2023-02-14T17:44:36.076Z,101415.91
2023-02-14T17:49:31.580Z,101417.56
2023-02-14T17:51:58.652Z,101415.88
2023-02-14T17:54:31.032Z,101411.56
2023-02-14T17:56:58.225Z,101410.13
2023-02-14T17:59:25.247Z,101404.72
2023-02-14T18:01:52.515Z,101393.44
2023-02-14T18:04:22.147Z,101403.50
2023-02-14T18:06:57.365Z,101402.88
2023-02-14T18:09:28.472Z,101398.91
2023-02-14T18:11:55.774Z,101401.56
2023-02-14T18:14:23.116Z,101398.34
2023-02-14T18:16:49.997Z,101396.47
2023-02-14T18:19:17.265Z,101402.25
2023-02-14T18:21:56.426Z,101397.94
2023-02-14T18:24:23.653Z,101405.63
2023-02-14T18:26:50.583Z,101407.91
2023-02-14T18:29:17.477Z,101411.75
2023-02-14T18:31:44.826Z,101404.78
2023-02-14T18:34:12.350Z,101394.56
2023-02-14T18:36:41.278Z,101398.16
2023-02-14T18:39:09.396Z,101397.53
2023-02-14T18:41:37.332Z,101401.53
2023-02-14T18:44:06.947Z,101399.34
2023-02-14T18:46:36.167Z,101393.47
2023-02-14T18:49:07.942Z,101387.53
2023-02-14T18:51:39.405Z,101399.19
2023-02-14T18:54:07.927Z,101395.34
2023-02-14T18:56:38.113Z,101393.88
2023-02-14T18:59:06.009Z,101394.84
2023-02-14T19:01:39.832Z,101384.09
2023-02-14T19:04:09.198Z,101389.00
2023-02-14T19:06:41.031Z,101387.72
2023-02-14T19:09:13.594Z,101381.38
2023-02-14T19:11:44.149Z,101380.97
2023-02-14T19:14:12.887Z,101374.44
2023-02-14T19:16:51.248Z,101375.28
2023-02-14T19:19:18.977Z,101370.63
2023-02-14T19:21:46.202Z,101367.53
2023-02-14T19:24:13.098Z,101371.91
2023-02-14T19:26:40.955Z,101364.56
2023-02-14T19:29:20.362Z,101366.34
2023-02-14T19:31:56.597Z,101363.59
2023-02-14T19:34:29.278Z,101365.00
2023-02-14T19:37:00.045Z,101360.19
2023-02-14T19:39:31.058Z,101360.22
2023-02-14T19:41:58.802Z,101361.66
2023-02-14T19:44:26.293Z,101359.78
2023-02-14T19:46:56.845Z,101355.25
2023-02-14T19:49:25.113Z,101356.69
2023-02-14T19:51:52.029Z,101353.19
2023-02-14T19:54:22.061Z,101344.72
2023-02-14T19:57:00.760Z,101345.00
2023-02-14T19:59:28.116Z,101340.41
2023-02-14T20:01:58.479Z,101334.06
2023-02-14T20:04:30.079Z,101343.69
2023-02-14T20:06:57.812Z,101341.31
2023-02-14T20:09:29.371Z,101340.78
2023-02-14T20:11:57.890Z,101344.19
2023-02-14T20:14:31.446Z,101342.28
2023-02-14T20:17:01.607Z,101338.31
2023-02-14T20:19:32.613Z,101328.88
2023-02-14T20:22:00.068Z,101326.38
2023-02-14T20:24:32.272Z,101339.38
2023-02-14T20:27:00.625Z,101333.97
2023-02-14T20:29:28.492Z,101336.84
2023-02-14T20:34:31.510Z,101340.47
2023-02-14T20:37:01.461Z,101338.09
2023-02-14T20:39:32.098Z,101327.72
2023-02-14T20:42:00.244Z,101324.13
2023-02-14T20:44:28.374Z,101320.69
2023-02-14T20:46:56.611Z,101323.94
2023-02-14T20:49:25.586Z,101327.47
2023-02-14T20:51:52.983Z,101312.81
2023-02-14T20:54:22.357Z,101321.53
2023-02-14T20:56:50.852Z,101314.91
2023-02-14T20:59:30.950Z,101318.06
2023-02-14T21:01:59.434Z,101316.25
2023-02-14T21:04:27.071Z,101314.97
2023-02-14T21:06:55.080Z,101316.25
2023-02-14T21:09:22.019Z,101304.13
2023-02-14T21:11:49.803Z,101303.81
2023-02-14T21:14:17.559Z,101295.06
2023-02-14T21:16:44.468Z,101293.72
2023-02-14T21:19:11.359Z,101298.84
2023-02-14T21:21:39.031Z,101291.06
2023-02-14T21:24:06.065Z,101291.56
2023-02-14T21:26:33.182Z,101292.00
2023-02-14T21:29:00.754Z,101290.53
2023-02-14T21:31:28.215Z,101280.53
2023-02-14T21:33:59.440Z,101281.78
2023-02-14T21:36:38.188Z,101281.91
2023-02-14T21:41:32.590Z,101283.25
2023-02-14T21:44:03.205Z,101274.78
2023-02-14T21:46:32.813Z,101266.47
2023-02-14T21:51:32.331Z,101271.25
2023-02-14T21:54:00.149Z,101267.06
2023-02-14T21:56:27.645Z,101261.59
2023-02-14T21:58:55.968Z,101256.06
2023-02-14T22:01:28.511Z,101259.44
2023-02-14T22:03:56.820Z,101249.50
2023-02-14T22:06:25.265Z,101249.28
2023-02-14T22:11:31.542Z,101245.31
2023-02-14T22:13:59.349Z,101250.28
2023-02-14T22:16:26.079Z,101245.09
2023-02-14T22:18:52.932Z,101240.63
2023-02-14T22:21:22.849Z,101243.47
2023-02-14T22:23:49.851Z,101244.94
2023-02-14T22:26:24.481Z,101249.03
2023-02-14T22:28:54.117Z,101245.44
2023-02-14T22:31:21.007Z,101247.59
2023-02-14T22:33:48.835Z,101246.56
2023-02-14T22:36:16.373Z,101242.50
2023-02-14T22:38:43.517Z,101238.66
2023-02-14T22:41:20.097Z,101236.94
2023-02-14T22:43:47.055Z,101235.09
2023-02-14T22:46:22.892Z,101231.63
2023-02-14T22:48:51.776Z,101232.22
2023-02-14T22:51:31.337Z,101228.81
2023-02-14T22:56:39.037Z,101231.34
2023-02-14T22:59:06.207Z,101226.81
2023-02-14T23:01:37.181Z,101227.91
2023-02-14T23:06:34.383Z,101229.47
2023-02-14T23:11:34.418Z,101231.56
2023-02-14T23:16:50.158Z,101225.31
2023-02-14T23:19:38.408Z,101220.22
2023-02-14T23:22:06.135Z,101220.25
2023-02-14T23:24:33.089Z,101219.16
2023-02-14T23:27:02.905Z,101219.97
2023-02-14T23:29:30.703Z,101226.75
2023-02-14T23:31:58.363Z,101224.56
2023-02-14T23:34:28.129Z,101225.19
2023-02-14T23:36:58.231Z,101213.94
2023-02-14T23:39:25.355Z,101217.34
2023-02-14T23:41:52.653Z,101214.09
2023-02-14T23:44:27.953Z,101208.78
2023-02-14T23:47:07.355Z,101207.22
2023-02-14T23:49:39.165Z,101206.84
2023-02-14T23:52:07.348Z,101203.09
2023-02-14T23:54:35.416Z,101199.16
2023-02-14T23:57:04.149Z,101188.69
2023-02-14T23:59:31.153Z,101190.66
